Time;durP1;ratioP1;P1;durP2;ratioP2;P2;SDS_P1;SDS_P2;PMS_P1;PMS_P2;Temp;Humidity;BMP_temperature;BMP_pressure;BME280_temperature;BME280_humidity;BME280_pressure;Samples;Min_cycle;Max_cycle;Signal;HPM_P1;HPM_P2
2023/02/22 00:01:34;;;;;;;43.27;18.23;;;;;;;14.96;100.00;101408.13;5100413;28;20055;-52
2023/02/22 00:04:01;;;;;;;50.03;19.83;;;;;;;14.83;100.00;101414.38;5096720;28;20293;-55
2023/02/22 00:06:28;;;;;;;46.93;19.83;;;;;;;14.47;100.00;101409.19;5095550;28;20279;-52
2023/02/22 00:08:54;;;;;;;51.63;20.80;;;;;;;14.16;100.00;101405.25;5095689;28;20360;-53
2023/02/22 00:11:20;;;;;;;45.85;19.40;;;;;;;14.07;100.00;101401.13;5098021;28;20565;-50
2023/02/22 00:13:46;;;;;;;50.25;19.65;;;;;;;13.58;100.00;101401.19;5098828;28;20036;-54
2023/02/22 00:16:18;;;;;;;45.10;18.30;;;;;;;13.85;100.00;101405.81;5100806;28;20024;-48
2023/02/22 00:18:44;;;;;;;45.03;18.95;;;;;;;13.56;100.00;101405.94;5094293;28;20112;-51
2023/02/22 00:21:12;;;;;;;47.65;20.08;;;;;;;14.36;100.00;101412.53;5096071;28;20035;-49
2023/02/22 00:23:45;;;;;;;50.13;18.65;;;;;;;13.80;100.00;101406.44;5100620;28;20051;-51
2023/02/22 00:26:12;;;;;;;48.50;19.42;;;;;;;14.18;100.00;101405.88;5094762;28;20035;-50
2023/02/22 00:28:39;;;;;;;49.63;20.20;;;;;;;14.13;100.00;101407.53;5094836;28;20040;-50
2023/02/22 00:31:06;;;;;;;52.00;21.85;;;;;;;14.30;100.00;101407.94;5099989;28;20195;-49
2023/02/22 00:33:32;;;;;;;45.47;19.03;;;;;;;13.67;100.00;101412.59;5080043;28;20039;-47
2023/02/22 00:35:58;;;;;;;47.58;19.42;;;;;;;13.97;100.00;101406.06;5100263;28;20270;-53
2023/02/22 00:38:25;;;;;;;47.63;19.90;;;;;;;14.06;100.00;101404.81;5102941;28;20031;-49
2023/02/22 00:40:51;;;;;;;47.92;19.38;;;;;;;13.80;100.00;101395.66;5114802;28;20048;-48
2023/02/22 00:43:17;;;;;;;57.23;20.37;;;;;;;13.98;100.00;101391.56;5101425;28;20042;-51
2023/02/22 00:45:42;;;;;;;51.53;19.57;;;;;;;13.61;100.00;101392.75;5103031;28;20056;-52
2023/02/22 00:48:08;;;;;;;53.07;20.83;;;;;;;14.13;100.00;101386.00;5097884;28;20273;-52
2023/02/22 00:50:35;;;;;;;42.97;19.77;;;;;;;14.86;100.00;101390.53;5081245;28;20767;-51
2023/02/22 00:53:03;;;;;;;51.78;19.92;;;;;;;14.82;100.00;101388.50;5104385;28;20032;-53
2023/02/22 00:55:31;;;;;;;46.15;18.95;;;;;;;15.24;100.00;101390.84;5085899;28;20032;-50
2023/02/22 00:57:57;;;;;;;49.30;21.37;;;;;;;14.03;100.00;101378.34;5099683;28;20099;-50
2023/02/22 01:00:25;;;;;;;52.10;21.48;;;;;;;14.46;100.00;101380.63;5082239;28;20281;-53
2023/02/22 01:02:51;;;;;;;47.42;19.65;;;;;;;13.72;100.00;101377.06;5084168;28;20050;-52
2023/02/22 01:05:19;;;;;;;47.50;19.65;;;;;;;14.00;100.00;101379.59;5102335;28;20052;-51
2023/02/22 01:07:46;;;;;;;51.97;20.45;;;;;;;14.42;100.00;101382.09;5101107;28;20036;-51
2023/02/22 01:10:19;;;;;;;49.13;20.17;;;;;;;13.52;100.00;101377.81;5103531;28;20028;-52
2023/02/22 01:12:47;;;;;;;45.22;18.25;;;;;;;14.06;100.00;101377.94;5103104;28;20040;-53
2023/02/22 01:15:14;;;;;;;44.35;19.73;;;;;;;13.58;100.00;101374.31;5100338;28;20021;-52
2023/02/22 01:17:42;;;;;;;48.30;18.88;;;;;;;13.93;100.00;101380.63;5100115;28;20041;-52
2023/02/22 01:20:13;;;;;;;53.33;21.70;;;;;;;13.72;100.00;101390.50;5098474;28;20058;-48
2023/02/22 01:22:41;;;;;;;54.92;21.92;;;;;;;13.70;100.00;101384.50;5102813;28;20059;-52
2023/02/22 01:25:08;;;;;;;53.13;20.48;;;;;;;13.47;100.00;101385.66;5112319;28;20063;-51
2023/02/22 01:27:34;;;;;;;51.78;20.10;;;;;;;13.52;100.00;101372.44;5100353;28;20039;-47
2023/02/22 01:30:07;;;;;;;52.40;20.67;;;;;;;12.98;100.00;101376.72;5089209;28;20042;-50
2023/02/22 01:32:35;;;;;;;53.80;19.05;;;;;;;12.98;100.00;101366.00;5103712;28;20037;-50
2023/02/22 01:35:03;;;;;;;50.78;20.10;;;;;;;13.72;100.00;101369.00;5104273;28;20044;-49
2023/02/22 01:37:30;;;;;;;50.28;20.33;;;;;;;14.05;100.00;101360.13;5101746;28;20052;-49
2023/02/22 01:39:58;;;;;;;50.15;19.27;;;;;;;13.77;100.00;101356.59;5099688;28;20032;-51
2023/02/22 01:42:25;;;;;;;54.25;21.67;;;;;;;13.48;100.00;101349.72;5097660;28;20062;-55
2023/02/22 01:45:39;;;;;;;51.85;18.48;;;;;;;13.31;100.00;101350.03;5079928;28;20054;-50
2023/02/22 01:48:18;;;;;;;54.97;19.60;;;;;;;13.48;100.00;101347.84;5027138;28;20038;-50
2023/02/22 01:50:58;;;;;;;52.95;19.17;;;;;;;13.58;100.00;101343.94;5080624;28;20051;-52
2023/02/22 01:53:35;;;;;;;54.88;19.45;;;;;;;14.01;100.00;101345.44;5082005;28;20058;-49
2023/02/22 01:56:03;;;;;;;50.45;19.98;;;;;;;14.20;100.00;101347.31;5084739;28;20107;-49
2023/02/22 01:58:32;;;;;;;56.05;23.17;;;;;;;14.43;100.00;101353.31;5086084;28;20032;-47
2023/02/22 02:00:57;;;;;;;58.95;21.75;;;;;;;14.51;100.00;101347.72;5081359;28;20033;-49
2023/02/22 02:03:27;;;;;;;53.67;19.67;;;;;;;13.76;100.00;101341.50;5101721;28;20029;-49
2023/02/22 02:05:55;;;;;;;49.30;19.63;;;;;;;13.49;100.00;101340.63;5079781;28;20047;-51
2023/02/22 02:08:52;;;;;;;56.78;21.30;;;;;;;13.38;100.00;101338.47;5077716;28;20033;-49
2023/02/22 02:11:20;;;;;;;54.28;20.58;;;;;;;13.76;100.00;101337.97;5103562;28;20036;-49
2023/02/22 02:13:50;;;;;;;64.57;22.58;;;;;;;13.34;100.00;101332.69;5099691;28;20055;-51
2023/02/22 02:16:17;;;;;;;60.42;20.95;;;;;;;13.72;100.00;101323.28;5080970;28;20033;-51
2023/02/22 02:18:43;;;;;;;56.42;21.20;;;;;;;13.76;100.00;101324.53;5100824;28;20045;-48
2023/02/22 02:21:37;;;;;;;51.90;20.55;;;;;;;13.64;100.00;101326.19;5100512;28;20050;-53
2023/02/22 02:24:07;;;;;;;53.97;20.30;;;;;;;13.77;100.00;101315.44;5113347;28;20075;-51
2023/02/22 02:27:02;;;;;;;57.08;21.40;;;;;;;13.75;100.00;101309.44;5077762;28;20123;-51
2023/02/22 02:30:06;;;;;;;57.75;21.60;;;;;;;13.87;100.00;101305.13;5100200;28;20027;-48
2023/02/22 02:32:47;;;;;;;59.13;20.23;;;;;;;13.60;100.00;101298.88;5098328;28;20037;-50
2023/02/22 02:35:26;;;;;;;55.03;20.02;;;;;;;13.87;100.00;101298.91;5096531;28;20040;-52
2023/02/22 02:38:24;;;;;;;56.42;21.48;;;;;;;14.17;100.00;101299.31;5096528;28;20096;-48
2023/02/22 02:41:09;;;;;;;60.03;20.58;;;;;;;13.52;100.00;101289.16;5098563;28;20028;-48
2023/02/22 02:43:42;;;;;;;56.45;20.90;;;;;;;13.80;100.00;101293.53;5080804;28;20860;-49
2023/02/22 02:46:14;;;;;;;62.97;21.70;;;;;;;13.98;100.00;101289.41;5097300;28;20062;-48
2023/02/22 02:48:58;;;;;;;63.95;21.80;;;;;;;13.51;100.00;101290.19;5081134;28;20059;-54
2023/02/22 02:51:31;;;;;;;60.42;20.98;;;;;;;13.57;100.00;101286.66;5096620;28;20038;-48
2023/02/22 02:53:59;;;;;;;65.75;22.00;;;;;;;14.11;100.00;101292.09;5082399;28;20066;-52
2023/02/22 02:56:26;;;;;;;55.00;19.75;;;;;;;13.96;100.00;101291.47;5078702;28;20039;-49
2023/02/22 02:58:53;;;;;;;61.28;21.42;;;;;;;13.63;100.00;101274.28;5096716;28;20040;-48
2023/02/22 03:01:56;;;;;;;63.92;22.73;;;;;;;13.59;100.00;101279.22;5100027;28;20020;-49
2023/02/22 03:04:47;;;;;;;64.30;22.05;;;;;;;13.04;100.00;101282.78;5115087;28;20040;-48
2023/02/22 03:07:30;;;;;;;68.13;22.27;;;;;;;13.61;100.00;101274.50;5094354;28;20056;-49
2023/02/22 03:10:24;;;;;;;64.35;23.17;;;;;;;13.46;100.00;101273.84;5099681;28;20035;-51
2023/02/22 03:13:21;;;;;;;65.65;22.15;;;;;;;13.41;100.00;101271.75;5083905;28;20042;-51
2023/02/22 03:16:12;;;;;;;66.85;21.92;;;;;;;12.77;100.00;101263.91;5114792;28;20059;-51
2023/02/22 03:18:46;;;;;;;64.55;22.92;;;;;;;12.91;100.00;101258.56;5099462;28;20028;-51
2023/02/22 03:21:35;;;;;;;59.45;22.85;;;;;;;12.84;100.00;101257.72;5078007;28;20043;-51
2023/02/22 03:24:18;;;;;;;65.07;23.52;;;;;;;12.60;100.00;101249.16;5080191;28;20032;-51
2023/02/22 03:27:15;;;;;;;66.35;22.77;;;;;;;13.10;100.00;101256.16;5112035;28;20115;-51
2023/02/22 03:29:49;;;;;;;58.50;21.15;;;;;;;13.57;100.00;101248.25;5114553;28;20040;-49
2023/02/22 03:32:21;;;;;;;80.20;24.90;;;;;;;12.84;100.00;101257.72;5097512;28;20055;-52
2023/02/22 03:34:56;;;;;;;65.28;23.20;;;;;;;13.50;100.00;101247.41;5073572;28;20104;-49
2023/02/22 03:37:32;;;;;;;69.63;25.17;;;;;;;12.65;100.00;101253.94;5094961;28;20063;-51
2023/02/22 03:39:59;;;;;;;73.90;25.92;;;;;;;13.19;100.00;101245.03;5080317;28;20048;-53
2023/02/22 03:42:35;;;;;;;75.35;24.23;;;;;;;13.30;100.00;101248.19;5081185;28;20042;-50
2023/02/22 03:45:05;;;;;;;74.43;25.67;;;;;;;13.13;100.00;101243.16;5080781;28;20028;-52
2023/02/22 03:47:38;;;;;;;77.78;26.27;;;;;;;13.46;100.00;101238.94;5098303;28;20029;-50
2023/02/22 03:50:10;;;;;;;79.65;24.73;;;;;;;13.10;100.00;101242.72;5109677;28;20051;-49
2023/02/22 03:52:36;;;;;;;74.20;25.70;;;;;;;13.46;100.00;101238.94;5081697;28;20024;-52
2023/02/22 03:55:09;;;;;;;86.88;27.23;;;;;;;13.04;100.00;101236.34;5084226;28;20369;-50
2023/02/22 03:57:45;;;;;;;75.63;25.25;;;;;;;12.77;100.00;101230.84;5095150;28;20029;-50
2023/02/22 04:00:14;;;;;;;105.18;30.25;;;;;;;12.92;100.00;101225.34;5078379;28;20028;-52
2023/02/22 04:02:40;;;;;;;106.53;29.33;;;;;;;12.59;100.00;101228.72;5098358;28;20032;-53
2023/02/22 04:05:07;;;;;;;87.15;28.17;;;;;;;13.20;100.00;101227.88;5079068;28;20040;-54
2023/02/22 04:07:33;;;;;;;90.53;27.77;;;;;;;13.17;100.00;101222.13;5084251;28;20036;-54
2023/02/22 04:10:01;;;;;;;228.13;36.00;;;;;;;12.45;100.00;101227.84;5082088;28;20044;-51
2023/02/22 04:12:27;;;;;;;235.77;34.20;;;;;;;12.39;100.00;101218.72;5100754;28;20036;-53
2023/02/22 04:14:56;;;;;;;182.18;36.08;;;;;;;12.90;100.00;101211.28;5082361;28;20024;-51
2023/02/22 04:17:22;;;;;;;155.23;30.58;;;;;;;12.98;100.00;101210.28;5079477;28;20032;-55
2023/02/22 04:19:48;;;;;;;180.43;30.83;;;;;;;12.69;100.00;101206.88;5077054;28;20104;-53
2023/02/22 04:22:14;;;;;;;145.32;29.42;;;;;;;12.96;100.00;101201.59;5075451;28;20043;-51
2023/02/22 04:24:40;;;;;;;148.70;31.52;;;;;;;13.20;100.00;101197.53;5084508;28;20029;-53
2023/02/22 04:27:05;;;;;;;121.10;29.53;;;;;;;13.52;100.00;101205.84;5065985;28;20064;-54
2023/02/22 04:29:34;;;;;;;127.90;28.90;;;;;;;13.70;100.00;101201.72;5081221;28;20028;-50
2023/02/22 04:32:00;;;;;;;298.48;33.90;;;;;;;13.84;100.00;101198.00;5097243;28;20087;-50
2023/02/22 04:34:26;;;;;;;181.98;31.20;;;;;;;13.96;100.00;101194.66;5081930;28;20075;-49
2023/02/22 04:36:52;;;;;;;416.30;38.83;;;;;;;13.31;100.00;101196.09;5097626;28;20044;-50
2023/02/22 04:39:17;;;;;;;239.57;32.33;;;;;;;13.44;100.00;101182.69;5094517;28;20053;-47
2023/02/22 04:41:43;;;;;;;156.30;31.67;;;;;;;13.29;100.00;101182.88;5075953;28;20056;-54
2023/02/22 04:44:10;;;;;;;331.75;36.72;;;;;;;12.86;100.00;101177.81;5082800;28;20486;-50
2023/02/22 04:46:36;;;;;;;304.40;33.88;;;;;;;13.18;100.00;101181.63;5080145;28;20099;-55
2023/02/22 04:49:02;;;;;;;299.80;35.22;;;;;;;12.63;100.00;101176.31;5083127;28;20029;-50
2023/02/22 04:51:30;;;;;;;219.10;33.17;;;;;;;12.86;100.00;101172.47;5079411;28;20124;-48
2023/02/22 04:54:02;;;;;;;228.00;33.45;;;;;;;12.98;100.00;101168.16;5096819;28;20032;-49
2023/02/22 04:56:29;;;;;;;259.50;34.00;;;;;;;13.11;100.00;101167.38;5075951;28;20044;-48
2023/02/22 04:58:55;;;;;;;188.50;30.33;;;;;;;12.79;100.00;101155.53;5076172;28;20036;-51
2023/02/22 05:01:22;;;;;;;132.30;33.10;;;;;;;13.75;100.00;101161.59;5085271;28;20268;-49
2023/02/22 05:03:47;;;;;;;211.70;33.85;;;;;;;13.52;100.00;101154.00;5094389;28;20020;-50
2023/02/22 05:06:13;;;;;;;111.95;29.33;;;;;;;14.05;100.00;101155.75;5097809;28;20043;-50
2023/02/22 05:08:38;;;;;;;135.97;30.67;;;;;;;14.23;100.00;101151.56;5095067;28;20054;-52
2023/02/22 05:11:04;;;;;;;217.63;31.87;;;;;;;14.21;100.00;101154.50;5096686;28;20284;-53
2023/02/22 05:13:30;;;;;;;148.10;31.05;;;;;;;14.15;100.00;101155.31;5098989;28;20032;-51
2023/02/22 05:15:56;;;;;;;251.07;33.47;;;;;;;14.04;100.00;101163.00;5097535;28;20032;-50
2023/02/22 05:18:21;;;;;;;193.33;29.40;;;;;;;13.54;100.00;101155.41;5097715;28;20276;-49
2023/02/22 05:20:47;;;;;;;249.53;31.30;;;;;;;12.77;100.00;101150.34;5098366;28;20032;-52
2023/02/22 05:23:12;;;;;;;191.63;28.57;;;;;;;13.06;100.00;101151.03;5095832;28;20267;-50
2023/02/22 05:25:37;;;;;;;321.80;34.73;;;;;;;12.81;100.00;101145.41;5098815;28;20036;-50
2023/02/22 05:28:09;;;;;;;292.70;34.87;;;;;;;12.52;100.00;101155.44;5098524;28;20123;-53
2023/02/22 05:30:38;;;;;;;283.65;33.65;;;;;;;12.36;100.00;101154.75;5104844;28;20048;-50
2023/02/22 05:33:04;;;;;;;332.92;34.70;;;;;;;12.04;100.00;101144.47;5099284;28;20042;-51
2023/02/22 05:35:29;;;;;;;247.75;31.25;;;;;;;12.28;100.00;101152.25;5101118;28;20131;-50
2023/02/22 05:37:56;;;;;;;257.23;32.17;;;;;;;11.88;100.00;101144.78;5101258;28;20047;-48
2023/02/22 05:40:25;;;;;;;260.90;30.58;;;;;;;12.39;100.00;101132.06;5100738;28;20068;-50
2023/02/22 05:42:52;;;;;;;289.75;34.50;;;;;;;12.25;100.00;101133.88;5096329;28;20033;-50
2023/02/22 05:45:21;;;;;;;222.18;33.35;;;;;;;12.65;100.00;101144.72;5100115;28;20036;-47
2023/02/22 05:47:47;;;;;;;298.67;36.67;;;;;;;12.73;100.00;101133.00;5105033;28;20088;-51
2023/02/22 05:50:13;;;;;;;309.27;37.53;;;;;;;12.77;100.00;101134.25;5103841;28;20283;-49
2023/02/22 05:52:40;;;;;;;264.17;32.30;;;;;;;12.50;100.00;101133.34;5098332;28;20051;-50
2023/02/22 05:55:06;;;;;;;183.65;32.05;;;;;;;12.58;100.00;101135.84;5097675;28;20047;-51
2023/02/22 05:57:32;;;;;;;240.02;34.90;;;;;;;12.71;100.00;101129.69;5095260;28;20079;-52
2023/02/22 05:59:58;;;;;;;177.60;31.10;;;;;;;12.55;100.00;101125.53;5097993;28;20337;-50
2023/02/22 06:02:24;;;;;;;191.38;26.35;;;;;;;12.24;100.00;101125.00;5099917;28;20028;-49
2023/02/22 06:04:49;;;;;;;227.32;32.60;;;;;;;12.24;100.00;101124.19;5099647;28;20036;-53
2023/02/22 06:07:14;;;;;;;173.70;28.90;;;;;;;12.29;100.00;101121.72;5106989;28;20054;-55
2023/02/22 06:09:40;;;;;;;242.47;36.93;;;;;;;12.19;100.00;101122.09;5101431;28;20036;-49
2023/02/22 06:12:06;;;;;;;131.98;29.30;;;;;;;12.95;100.00;101132.84;5099216;28;20025;-52
2023/02/22 06:14:31;;;;;;;240.98;36.05;;;;;;;12.69;100.00;101116.50;5097105;28;20099;-52
2023/02/22 06:16:59;;;;;;;190.43;31.60;;;;;;;12.55;100.00;101125.53;5097620;28;20040;-50
2023/02/22 06:19:26;;;;;;;180.38;31.95;;;;;;;13.05;100.00;101123.34;5082230;28;20036;-50
2023/02/22 06:21:53;;;;;;;114.43;27.45;;;;;;;13.51;100.00;101114.72;5101524;28;20040;-48
2023/02/22 06:24:18;;;;;;;134.82;31.20;;;;;;;13.36;100.00;101114.88;5097523;28;20055;-51
2023/02/22 06:26:44;;;;;;;140.00;29.83;;;;;;;12.91;100.00;101097.50;5099755;28;20033;-48
2023/02/22 06:29:10;;;;;;;115.00;29.02;;;;;;;13.52;100.00;101095.69;5099167;28;20036;-50
2023/02/22 06:31:35;;;;;;;102.80;27.90;;;;;;;13.81;100.00;101101.63;5099147;28;20028;-49
2023/02/22 06:34:01;;;;;;;93.60;29.07;;;;;;;13.89;100.00;101087.97;5093596;28;20025;-52
2023/02/22 06:36:28;;;;;;;114.65;27.65;;;;;;;13.85;100.00;101092.13;5099904;28;20287;-48
2023/02/22 06:38:55;;;;;;;97.40;25.90;;;;;;;13.32;100.00;101083.06;5104652;28;20047;-51
2023/02/22 06:41:21;;;;;;;127.95;24.52;;;;;;;13.34;100.00;101086.38;5097998;28;20029;-51
2023/02/22 06:43:47;;;;;;;140.73;28.23;;;;;;;12.55;100.00;101079.91;5099390;28;20054;-51
2023/02/22 06:46:12;;;;;;;77.18;23.45;;;;;;;12.87;100.00;101086.38;5098037;28;20127;-52
2023/02/22 06:48:39;;;;;;;78.77;25.23;;;;;;;13.62;100.00;101081.84;5098189;28;20064;-50
2023/02/22 06:51:08;;;;;;;86.87;27.37;;;;;;;13.90;100.00;101081.56;5101349;28;20292;-51
2023/02/22 06:53:34;;;;;;;86.32;23.88;;;;;;;13.81;100.00;101080.13;5101738;28;20058;-51
2023/02/22 06:56:01;;;;;;;80.05;26.40;;;;;;;13.95;100.00;101080.91;5083097;28;20028;-48
2023/02/22 06:58:26;;;;;;;93.05;25.55;;;;;;;13.37;100.00;101078.94;5099935;28;20059;-54
2023/02/22 07:00:52;;;;;;;57.78;20.77;;;;;;;13.62;100.00;101082.66;5098186;28;20032;-51
2023/02/22 07:03:19;;;;;;;74.03;26.00;;;;;;;14.01;100.00;101074.69;5097887;28;20103;-50
2023/02/22 07:05:44;;;;;;;77.50;24.45;;;;;;;13.89;100.00;101087.13;5096809;28;20063;-49
2023/02/22 07:08:11;;;;;;;75.07;25.53;;;;;;;13.73;100.00;101077.69;5098465;28;20036;-47
2023/02/22 07:10:38;;;;;;;75.65;25.15;;;;;;;13.83;100.00;101071.88;5100298;28;20032;-51
2023/02/22 07:13:06;;;;;;;79.82;25.77;;;;;;;13.73;100.00;101075.81;5102519;28;20073;-52
2023/02/22 07:15:33;;;;;;;86.78;25.85;;;;;;;13.78;100.00;101075.16;5097887;28;20078;-51
2023/02/22 07:18:00;;;;;;;70.55;24.45;;;;;;;13.78;100.00;101091.31;5101963;28;20044;-52
2023/02/22 07:20:26;;;;;;;;;;;;;;;13.71;100.00;101090.50;5101910;28;20036;-48
2023/02/22 07:22:52;;;;;;;73.90;24.13;;;;;;;13.41;100.00;101093.63;5099547;28;19972;-53
2023/02/22 07:25:18;;;;;;;75.18;24.73;;;;;;;13.50;100.00;101100.44;5080417;28;20041;-53
2023/02/22 07:27:45;;;;;;;80.35;25.67;;;;;;;14.10;100.00;101104.88;5098659;28;20055;-52
2023/02/22 07:30:29;;;;;;;73.05;23.77;;;;;;;14.62;100.00;101096.75;5105631;28;20036;-50
2023/02/22 07:32:55;;;;;;;86.25;27.85;;;;;;;13.97;100.00;101113.81;5098342;28;20037;-52
2023/02/22 07:35:45;;;;;;;79.05;27.17;;;;;;;13.55;100.00;101103.34;5095444;28;20848;-51
2023/02/22 07:38:12;;;;;;;70.78;24.85;;;;;;;13.56;100.00;101104.19;5088963;28;20070;-51
2023/02/22 07:40:38;;;;;;;75.90;26.05;;;;;;;13.90;100.00;101105.75;5101350;28;20179;-49
2023/02/22 07:43:12;;;;;;;77.55;26.02;;;;;;;14.00;100.00;101115.22;5101697;28;20108;-52
2023/02/22 07:45:37;;;;;;;69.22;23.65;;;;;;;13.90;100.00;101111.13;5098103;28;20031;-59
2023/02/22 07:48:03;;;;;;;75.77;24.10;;;;;;;13.53;100.00;101116.16;5095835;28;20046;-47
2023/02/22 07:50:30;;;;;;;;;;;;;;;13.18;100.00;101109.09;5097837;28;20046;-50
2023/02/22 07:52:57;;;;;;;74.88;25.77;;;;;;;13.40;100.00;101111.59;5100873;28;19971;-54
2023/02/22 07:55:26;;;;;;;77.78;24.85;;;;;;;12.96;100.00;101111.16;5098648;28;20085;-50
2023/02/22 07:57:55;;;;;;;71.70;26.15;;;;;;;13.10;100.00;101114.69;5097727;28;20036;-51
2023/02/22 08:00:36;;;;;;;77.28;24.00;;;;;;;13.91;100.00;101110.09;5098735;28;20039;-49
2023/02/22 08:03:05;;;;;;;71.60;25.52;;;;;;;13.74;100.00;101108.88;5100147;28;20036;-53
2023/02/22 08:05:32;;;;;;;73.32;23.15;;;;;;;13.91;100.00;101111.94;5094029;28;20059;-49
2023/02/22 08:07:57;;;;;;;79.50;26.83;;;;;;;14.05;100.00;101101.97;5099904;28;20036;-55
2023/02/22 08:10:24;;;;;;;77.10;28.15;;;;;;;14.38;100.00;101109.09;5096299;28;20070;-51
2023/02/22 08:12:50;;;;;;;;;;;;;;;13.63;100.00;101121.09;5097137;28;20032;-48
2023/02/22 08:15:19;;;;;;;67.43;24.83;;;;;;;14.36;100.00;101123.78;5096439;28;19969;-53
2023/02/22 08:17:45;;;;;;;80.28;27.88;;;;;;;13.81;100.00;101125.81;5093048;28;20036;-49
2023/02/22 08:20:10;;;;;;;71.70;24.93;;;;;;;13.82;100.00;101116.72;5102452;28;20025;-47
2023/02/22 08:22:36;;;;;;;73.18;24.58;;;;;;;13.41;100.00;101110.56;5097967;28;20050;-51
2023/02/22 08:25:02;;;;;;;80.93;28.23;;;;;;;13.28;100.00;101122.13;5095969;28;20046;-49
2023/02/22 08:27:29;;;;;;;77.18;26.45;;;;;;;13.90;100.00;101127.25;5102866;28;20267;-50
2023/02/22 08:29:55;;;;;;;71.55;23.60;;;;;;;13.97;100.00;101118.34;5096907;28;20055;-49
2023/02/22 08:32:22;;;;;;;76.25;25.00;;;;;;;13.58;100.00;101116.34;5094259;28;20032;-49
2023/02/22 08:34:48;;;;;;;76.03;24.77;;;;;;;13.82;100.00;101122.09;5099642;28;20082;-48
2023/02/22 08:37:15;;;;;;;66.40;24.75;;;;;;;14.14;100.00;101114.16;5098250;28;20103;-50
2023/02/22 08:39:41;;;;;;;64.30;22.65;;;;;;;14.46;100.00;101114.22;5102026;28;20038;-50
2023/02/22 08:42:08;;;;;;;66.10;23.43;;;;;;;14.67;100.00;101111.44;5095143;28;20055;-53
2023/02/22 08:44:35;;;;;;;73.10;24.92;;;;;;;14.46;100.00;101102.66;5098877;28;20041;-48
2023/02/22 08:47:01;;;;;;;67.85;23.05;;;;;;;14.26;100.00;101106.25;5096473;28;20081;-50
2023/02/22 08:49:27;;;;;;;74.03;25.10;;;;;;;14.12;100.00;101092.03;5099409;28;20071;-50
2023/02/22 08:51:53;;;;;;;62.13;23.07;;;;;;;15.16;100.00;101091.03;5098725;28;20036;-54
2023/02/22 08:54:18;;;;;;;60.70;21.80;;;;;;;15.72;100.00;101087.63;5096874;28;20050;-51
2023/02/22 08:56:44;;;;;;;62.50;23.98;;;;;;;15.71;100.00;101085.97;5100040;28;20051;-53
2023/02/22 08:59:09;;;;;;;61.70;22.93;;;;;;;15.29;100.00;101089.25;5107129;28;20044;-50
2023/02/22 09:01:36;;;;;;;62.20;22.35;;;;;;;14.51;100.00;101088.53;5106366;28;20265;-51
2023/02/22 09:04:02;;;;;;;57.28;20.63;;;;;;;15.04;100.00;101079.31;5102100;28;20036;-49
2023/02/22 09:06:28;;;;;;;54.27;20.70;;;;;;;15.09;100.00;101076.78;5099176;28;20060;-49
2023/02/22 09:08:54;;;;;;;59.50;23.57;;;;;;;15.20;100.00;101077.94;5103472;28;20040;-49
2023/02/22 09:11:20;;;;;;;61.55;22.52;;;;;;;15.53;100.00;101076.81;5102095;28;20273;-54
2023/02/22 09:13:45;;;;;;;64.43;22.83;;;;;;;15.43;100.00;101068.41;5099907;28;20056;-50
2023/02/22 09:16:11;;;;;;;66.77;21.57;;;;;;;15.69;100.00;101070.00;5099657;28;20043;-51
2023/02/22 09:18:36;;;;;;;60.85;24.38;;;;;;;16.00;100.00;101070.91;5097980;28;20096;-51
2023/02/22 09:21:03;;;;;;;61.27;22.40;;;;;;;16.18;100.00;101080.88;5102190;28;20036;-52
2023/02/22 09:23:29;;;;;;;61.07;23.23;;;;;;;16.24;100.00;101078.31;5099760;28;20032;-50
2023/02/22 09:25:54;;;;;;;53.93;20.77;;;;;;;16.13;100.00;101071.81;5098856;28;20345;-53
2023/02/22 09:28:20;;;;;;;56.67;22.03;;;;;;;15.53;100.00;101074.13;5099031;28;20289;-51
2023/02/22 09:30:46;;;;;;;65.63;23.27;;;;;;;15.19;100.00;101074.44;5098995;28;20067;-53
2023/02/22 09:33:14;;;;;;;67.38;23.50;;;;;;;15.09;100.00;101070.56;5098724;28;20032;-48
2023/02/22 09:35:45;;;;;;;61.43;22.97;;;;;;;14.51;100.00;101072.38;5100295;28;20047;-52
2023/02/22 09:38:12;;;;;;;59.80;22.00;;;;;;;15.28;100.00;101071.44;5102526;28;20273;-53
2023/02/22 09:40:43;;;;;;;66.53;23.60;;;;;;;15.23;100.00;101073.97;5099235;28;20257;-52
2023/02/22 09:43:34;;;;;;;64.00;23.30;;;;;;;16.19;100.00;101066.34;5100387;28;20269;-52
2023/02/22 09:46:26;;;;;;;72.90;24.80;;;;;;;16.60;100.00;101060.38;5100235;28;20277;-52
2023/02/22 09:48:58;;;;;;;68.20;25.20;;;;;;;16.78;100.00;101062.19;5105976;28;20314;-48
2023/02/22 09:51:29;;;;;;;63.07;24.63;;;;;;;16.55;100.00;101042.19;5098355;28;20298;-50
2023/02/22 09:53:59;;;;;;;61.23;23.47;;;;;;;17.42;100.00;101047.22;5100617;28;20261;-51
2023/02/22 09:56:26;;;;;;;73.13;25.27;;;;;;;18.05;100.00;101037.47;5095105;28;20307;-50
2023/02/22 09:58:58;;;;;;;66.47;24.60;;;;;;;18.51;99.35;101041.28;5099159;28;20266;-47
2023/02/22 10:01:39;;;;;;;65.63;22.80;;;;;;;17.72;100.00;101043.53;5100543;28;20277;-50
2023/02/22 10:04:17;;;;;;;67.07;25.67;;;;;;;17.55;100.00;101040.75;5097791;28;20779;-51
2023/02/22 10:06:51;;;;;;;61.30;23.87;;;;;;;18.30;100.00;101032.81;5096155;28;20285;-52
2023/02/22 10:09:17;;;;;;;61.50;22.93;;;;;;;18.33;97.96;101038.53;5096271;28;20273;-55
2023/02/22 10:11:43;;;;;;;;;;;;;;;18.26;98.33;101037.06;5098695;28;20277;-47
2023/02/22 10:14:28;;;;;;;63.63;24.43;;;;;;;18.16;98.97;101035.78;5095924;28;19938;-52
2023/02/22 10:17:05;;;;;;;59.93;22.80;;;;;;;18.47;97.53;101033.66;5092326;28;20101;-50
2023/02/22 10:19:38;;;;;;;62.53;22.93;;;;;;;18.91;95.03;101037.59;5094541;28;20272;-52
2023/02/22 10:22:25;;;;;;;59.47;22.70;;;;;;;19.91;91.84;101042.31;5098775;28;20281;-47
2023/02/22 10:25:00;;;;;;;;;;;;;;;19.06;93.48;101046.03;5097518;28;20289;-53
2023/02/22 10:27:47;;;;;;;48.87;21.10;;;;;;;19.27;93.08;101042.81;5104055;28;19912;-49
2023/02/22 10:30:20;;;;;;;;;;;;;;;19.83;90.23;101048.13;5097930;28;20376;-52
2023/02/22 10:33:09;;;;;;;47.07;19.80;;;;;;;20.09;88.37;101045.78;5096743;28;19916;-51
2023/02/22 10:35:37;;;;;;;54.30;21.27;;;;;;;18.97;92.19;101036.66;5095079;28;20312;-51
2023/02/22 10:38:24;;;;;;;51.23;21.03;;;;;;;19.24;89.89;101035.97;5097767;28;20052;-54
2023/02/22 10:40:56;;;;;;;52.40;21.03;;;;;;;17.94;96.29;101032.06;5098020;28;20273;-49
2023/02/22 10:43:23;;;;;;;55.50;21.13;;;;;;;17.88;99.89;101039.28;5100803;28;20347;-52
2023/02/22 10:45:55;;;;;;;51.95;21.17;;;;;;;17.77;98.72;101038.25;5097843;28;20289;-50
2023/02/22 10:48:23;;;;;;;57.40;21.03;;;;;;;17.61;100.00;101032.50;5096147;28;20044;-54
2023/02/22 10:50:49;;;;;;;55.07;21.67;;;;;;;17.20;100.00;101039.72;5098805;28;20277;-51
2023/02/22 10:53:14;;;;;;;55.78;20.80;;;;;;;17.37;100.00;101037.13;5101513;28;20269;-55
2023/02/22 10:56:06;;;;;;;52.13;20.75;;;;;;;17.50;100.00;101041.44;5098900;28;20043;-52
2023/02/22 10:58:56;;;;;;;51.47;21.60;;;;;;;17.21;100.00;101030.56;5099766;28;20036;-49
2023/02/22 11:01:48;;;;;;;58.13;21.83;;;;;;;17.08;100.00;101033.50;5092545;28;20817;-52
2023/02/22 11:04:20;;;;;;;53.80;20.63;;;;;;;17.91;100.00;101042.31;5090732;28;20315;-48
2023/02/22 11:07:08;;;;;;;55.07;21.27;;;;;;;17.98;98.53;101028.66;5098361;28;20297;-51
2023/02/22 11:10:08;;;;;;;52.23;20.97;;;;;;;17.56;100.00;101042.41;5092907;28;20273;-56
2023/02/22 11:12:39;;;;;;;50.20;21.37;;;;;;;16.81;100.00;101033.88;5053516;28;20277;-51
2023/02/22 11:15:17;;;;;;;48.83;20.67;;;;;;;17.27;100.00;101029.59;5098174;28;20252;-51
2023/02/22 11:17:45;;;;;;;45.93;19.37;;;;;;;17.47;100.00;101034.66;5091553;28;20289;-52